createdAt,value
2018-09-21T00:00:04.231Z,99.99
2018-09-21T00:01:04.162Z,99.99
2018-09-21T00:02:56.981Z,99.99
2018-09-21T00:03:56.915Z,99.99
2018-09-21T00:05:49.691Z,99.99
2018-09-21T00:06:49.618Z,99.99
2018-09-21T00:08:42.383Z,99.99
2018-09-21T00:09:42.321Z,99.99
2018-09-21T00:11:35.099Z,99.99
2018-09-21T00:12:35.020Z,99.99
2018-09-21T00:14:27.789Z,99.99
2018-09-21T00:15:27.719Z,99.99
2018-09-21T00:17:20.507Z,99.99
2018-09-21T00:18:20.441Z,99.99
2018-09-21T00:20:13.223Z,99.99
2018-09-21T00:21:13.149Z,99.99
2018-09-21T00:23:05.929Z,99.99
2018-09-21T00:24:05.867Z,99.99
2018-09-21T00:25:58.651Z,99.99
2018-09-21T00:26:58.579Z,99.99
2018-09-21T00:28:51.358Z,99.99
2018-09-21T00:29:51.296Z,99.99
2018-09-21T00:31:44.069Z,99.99
2018-09-21T00:32:43.994Z,99.99
2018-09-21T00:34:36.768Z,99.99
2018-09-21T00:35:36.693Z,99.99
2018-09-21T00:37:29.452Z,99.99
2018-09-21T00:38:29.388Z,99.99
2018-09-21T00:40:22.183Z,99.99
2018-09-21T00:41:22.103Z,99.99
2018-09-21T00:43:14.864Z,99.99
2018-09-21T00:44:14.800Z,99.99
2018-09-21T00:46:07.590Z,99.99
2018-09-21T00:47:07.509Z,99.99
2018-09-21T00:49:00.271Z,99.99
2018-09-21T00:50:00.211Z,99.99
2018-09-21T00:51:53.026Z,99.99
2018-09-21T00:52:52.935Z,99.99
2018-09-21T00:54:45.728Z,99.99
2018-09-21T00:55:45.653Z,99.99
2018-09-21T00:57:38.415Z,99.99
2018-09-21T00:58:38.350Z,99.99
2018-09-21T01:00:31.130Z,99.99
2018-09-21T01:01:31.060Z,99.99
2018-09-21T01:03:23.814Z,99.99
2018-09-21T01:04:23.752Z,99.99
2018-09-21T01:06:16.532Z,99.99
2018-09-21T01:07:16.458Z,99.99
2018-09-21T01:09:09.223Z,99.99
2018-09-21T01:10:09.164Z,99.99
2018-09-21T01:12:01.967Z,99.99
2018-09-21T01:13:01.892Z,99.99
2018-09-21T01:14:54.723Z,99.99
2018-09-21T01:15:54.613Z,99.99
2018-09-21T01:17:47.431Z,99.99
2018-09-21T01:18:47.352Z,99.99
2018-09-21T01:20:40.139Z,99.99
2018-09-21T01:21:40.054Z,99.99
2018-09-21T01:23:32.818Z,99.99
2018-09-21T01:24:32.762Z,99.99
2018-09-21T01:26:25.528Z,99.99
2018-09-21T01:27:25.459Z,99.99
2018-09-21T01:29:18.215Z,99.99
2018-09-21T01:30:18.154Z,99.99
2018-09-21T01:32:10.939Z,99.99
2018-09-21T01:33:10.856Z,99.99
2018-09-21T01:35:03.620Z,99.99
2018-09-21T01:36:03.550Z,99.99
2018-09-21T01:37:56.347Z,99.99
2018-09-21T01:38:56.266Z,99.99
2018-09-21T01:40:49.047Z,99.99
2018-09-21T01:41:48.972Z,99.99
2018-09-21T01:43:41.772Z,99.99
2018-09-21T01:44:41.702Z,99.99
2018-09-21T01:46:34.483Z,99.99
2018-09-21T01:47:34.411Z,99.99
2018-09-21T01:49:27.161Z,99.99
2018-09-21T01:50:27.156Z,99.99
2018-09-21T01:52:19.892Z,99.99
2018-09-21T01:53:19.815Z,99.99
2018-09-21T01:55:12.586Z,99.99
2018-09-21T01:56:12.522Z,99.99
2018-09-21T01:58:05.320Z,99.99
2018-09-21T01:59:05.251Z,99.99
2018-09-21T02:00:58.082Z,99.99
2018-09-21T02:01:58.010Z,99.99
2018-09-21T02:03:50.772Z,99.99
2018-09-21T02:04:50.714Z,99.99
2018-09-21T02:06:43.482Z,99.99
2018-09-21T02:07:43.406Z,99.99
2018-09-21T02:09:36.220Z,99.99
2018-09-21T02:10:36.108Z,99.99
2018-09-21T02:12:28.879Z,99.99
2018-09-21T02:13:28.804Z,99.99
2018-09-21T02:15:21.568Z,99.99
2018-09-21T02:16:21.505Z,99.99
2018-09-21T02:18:14.291Z,99.99
2018-09-21T02:19:14.219Z,99.99
2018-09-21T02:21:07.007Z,99.99
2018-09-21T02:22:06.929Z,99.99
2018-09-21T02:23:59.688Z,99.99
2018-09-21T02:24:59.627Z,99.99
2018-09-21T02:26:52.403Z,99.99
2018-09-21T02:27:52.329Z,99.99
2018-09-21T02:29:45.101Z,99.99
2018-09-21T02:30:45.033Z,99.99
2018-09-21T02:32:37.814Z,99.99
2018-09-21T02:33:37.738Z,99.99
2018-09-21T02:35:30.509Z,99.99
2018-09-21T02:36:30.441Z,99.99
2018-09-21T02:38:23.215Z,99.99
2018-09-21T02:39:23.141Z,99.99
2018-09-21T02:41:15.992Z,99.99
2018-09-21T02:42:15.911Z,99.99
2018-09-21T02:44:08.673Z,99.99
2018-09-21T02:45:08.613Z,99.99
2018-09-21T02:47:01.380Z,99.99
2018-09-21T02:48:01.310Z,99.99
2018-09-21T02:49:54.080Z,99.99
2018-09-21T02:50:54.014Z,99.99
2018-09-21T02:52:46.784Z,99.99
2018-09-21T02:53:46.710Z,99.99
2018-09-21T02:55:39.476Z,99.99
2018-09-21T02:56:39.410Z,99.99
2018-09-21T02:58:32.182Z,99.99
2018-09-21T02:59:32.108Z,99.99
2018-09-21T03:01:24.913Z,99.99
2018-09-21T03:02:24.832Z,99.99
2018-09-21T03:04:17.588Z,99.99
2018-09-21T03:05:17.527Z,99.99
2018-09-21T03:07:10.324Z,99.99
2018-09-21T03:08:10.246Z,99.99
2018-09-21T03:10:03.007Z,99.99
2018-09-21T03:11:02.949Z,99.99
2018-09-21T03:12:55.720Z,99.99
2018-09-21T03:13:55.648Z,99.99
2018-09-21T03:15:48.464Z,99.99
2018-09-21T03:16:48.405Z,99.99
2018-09-21T03:18:41.221Z,99.99
2018-09-21T03:19:41.152Z,99.99
2018-09-21T03:21:33.965Z,99.99
2018-09-21T03:22:33.886Z,99.99
2018-09-21T03:24:26.646Z,99.99
2018-09-21T03:25:26.586Z,99.99
2018-09-21T03:27:19.373Z,99.99
2018-09-21T03:28:19.300Z,99.99
2018-09-21T03:30:12.069Z,99.99
2018-09-21T03:31:11.998Z,99.99
2018-09-21T03:33:04.774Z,99.99
2018-09-21T03:34:04.698Z,99.99
2018-09-21T03:35:57.508Z,99.99
2018-09-21T03:36:57.449Z,99.99
2018-09-21T03:38:50.221Z,99.99
2018-09-21T03:39:50.147Z,99.99
2018-09-21T03:41:42.920Z,99.99
2018-09-21T03:42:42.845Z,99.99
2018-09-21T03:44:35.605Z,99.99
2018-09-21T03:45:35.543Z,99.99
2018-09-21T03:47:28.324Z,99.99
2018-09-21T03:48:28.251Z,99.99
2018-09-21T03:50:21.014Z,99.99
2018-09-21T03:51:20.949Z,99.99
2018-09-21T03:53:13.719Z,99.99
2018-09-21T03:54:13.647Z,99.99
2018-09-21T03:56:06.417Z,99.99
2018-09-21T03:57:06.353Z,99.99
2018-09-21T03:58:59.127Z,99.99
2018-09-21T03:59:59.052Z,99.99
2018-09-21T04:01:51.844Z,99.99
2018-09-21T04:02:51.766Z,99.99
2018-09-21T04:04:44.533Z,99.99
2018-09-21T04:05:44.483Z,99.99
2018-09-21T04:07:37.264Z,99.99
2018-09-21T04:08:37.177Z,99.99
2018-09-21T04:10:29.932Z,99.99
2018-09-21T04:11:29.876Z,99.99
2018-09-21T04:13:22.674Z,99.99
2018-09-21T04:14:22.574Z,99.99
2018-09-21T04:16:15.345Z,99.99
2018-09-21T04:17:15.277Z,99.99
2018-09-21T04:19:08.057Z,99.99
2018-09-21T04:20:07.983Z,99.99
2018-09-21T04:22:00.763Z,99.99
2018-09-21T04:23:00.785Z,99.99
2018-09-21T04:24:53.475Z,99.99
2018-09-21T04:25:53.399Z,99.99
2018-09-21T04:27:46.175Z,99.99
2018-09-21T04:28:46.102Z,99.99
2018-09-21T04:30:38.883Z,99.99
2018-09-21T04:31:38.810Z,99.99
2018-09-21T04:33:31.583Z,99.99
2018-09-21T04:34:31.523Z,99.99
2018-09-21T04:36:24.305Z,99.99
2018-09-21T04:37:24.238Z,99.99
2018-09-21T04:39:17.020Z,99.99
2018-09-21T04:40:16.940Z,99.99
2018-09-21T04:42:09.764Z,99.99
2018-09-21T04:43:09.701Z,99.99
2018-09-21T04:45:02.501Z,99.99
2018-09-21T04:46:02.403Z,99.99
2018-09-21T04:47:55.185Z,99.99
2018-09-21T04:48:55.110Z,99.99
2018-09-21T04:50:47.891Z,99.99
2018-09-21T04:51:47.835Z,99.99
2018-09-21T04:53:40.614Z,99.99
2018-09-21T04:54:40.540Z,99.99
2018-09-21T04:56:33.304Z,99.99
2018-09-21T04:57:33.246Z,99.99
2018-09-21T04:59:26.016Z,99.99
2018-09-21T05:00:25.943Z,99.99
2018-09-21T05:02:18.712Z,99.99
2018-09-21T05:03:18.652Z,99.99
2018-09-21T05:05:11.434Z,99.99
2018-09-21T05:06:11.364Z,99.99
2018-09-21T05:08:04.145Z,99.99
2018-09-21T05:09:04.073Z,99.99
2018-09-21T05:10:56.865Z,99.99
2018-09-21T05:11:56.799Z,99.99
2018-09-21T05:13:49.632Z,99.99
2018-09-21T05:14:49.502Z,99.99
2018-09-21T05:16:42.279Z,99.99
2018-09-21T05:17:42.216Z,99.99
2018-09-21T05:19:35.015Z,99.99
2018-09-21T05:20:34.944Z,99.99
2018-09-21T05:22:27.719Z,99.99
2018-09-21T05:23:27.657Z,99.99
2018-09-21T05:25:20.445Z,99.99
2018-09-21T05:26:20.369Z,99.99
2018-09-21T05:28:13.157Z,99.99
2018-09-21T05:29:13.084Z,99.99
2018-09-21T05:31:05.852Z,99.99
2018-09-21T05:32:05.789Z,99.99
2018-09-21T05:33:58.612Z,99.99
2018-09-21T05:34:58.550Z,99.99
2018-09-21T05:36:51.259Z,99.99
2018-09-21T05:37:51.202Z,99.99
2018-09-21T05:39:43.976Z,99.99
2018-09-21T05:40:43.913Z,99.99
2018-09-21T05:42:36.709Z,99.99
2018-09-21T05:43:36.637Z,99.99
2018-09-21T05:45:29.473Z,99.99
2018-09-21T05:46:29.395Z,99.45
2018-09-21T05:48:22.182Z,99.64
2018-09-21T05:49:22.112Z,99.99
2018-09-21T05:51:14.875Z,99.50
2018-09-21T05:52:14.815Z,99.40
2018-09-21T05:54:07.597Z,98.73
2018-09-21T05:55:07.521Z,99.02
2018-09-21T05:57:00.292Z,98.34
2018-09-21T05:58:00.233Z,98.54
2018-09-21T05:59:53.012Z,97.86
2018-09-21T06:00:52.941Z,98.10
2018-09-21T06:02:45.714Z,97.33
2018-09-21T06:03:45.651Z,96.94
2018-09-21T06:05:38.430Z,96.46
2018-09-21T06:06:38.354Z,96.17
2018-09-21T06:08:31.140Z,96.75
2018-09-21T06:09:31.081Z,95.83
2018-09-21T06:11:23.841Z,95.06
2018-09-21T06:12:23.801Z,95.06
2018-09-21T06:14:16.553Z,95.35
2018-09-21T06:15:16.481Z,94.96
2018-09-21T06:17:09.256Z,95.25
2018-09-21T06:18:09.193Z,95.25
2018-09-21T06:20:11.934Z,94.68
2018-09-21T06:21:01.996Z,94.14
2018-09-21T06:22:54.764Z,92.25
2018-09-21T06:23:54.696Z,92.55
2018-09-21T06:25:47.475Z,91.29
2018-09-21T06:26:47.408Z,90.91
2018-09-21T06:28:40.188Z,89.69
2018-09-21T06:29:40.113Z,89.79
2018-09-21T06:31:32.963Z,88.09
2018-09-21T06:32:32.890Z,87.75
2018-09-21T06:34:25.667Z,85.96
2018-09-21T06:35:25.593Z,84.16
2018-09-21T06:37:18.370Z,81.91
2018-09-21T06:38:18.305Z,80.21
2018-09-21T06:40:11.098Z,77.82
2018-09-21T06:41:11.042Z,77.92
2018-09-21T06:43:03.806Z,77.62
2018-09-21T06:44:03.745Z,77.72
2018-09-21T06:45:56.524Z,77.14
2018-09-21T06:46:56.456Z,77.08
2018-09-21T06:48:49.240Z,76.75
2018-09-21T06:49:49.187Z,76.95
2018-09-21T06:51:41.938Z,76.72
2018-09-21T06:52:41.880Z,77.24
2018-09-21T06:54:34.684Z,76.42
2018-09-21T06:55:34.603Z,77.49
2018-09-21T06:57:27.387Z,77.65
2018-09-21T06:58:27.326Z,77.94
2018-09-21T07:00:20.117Z,78.23
2018-09-21T07:01:20.092Z,78.46
2018-09-21T07:03:12.827Z,77.94
2018-09-21T07:04:12.770Z,76.91
2018-09-21T07:06:05.553Z,75.34
2018-09-21T07:07:05.482Z,75.67
2018-09-21T07:08:58.306Z,74.56
2018-09-21T07:09:58.245Z,75.04
2018-09-21T07:11:51.005Z,75.36
2018-09-21T07:12:50.953Z,76.48
2018-09-21T07:14:43.726Z,77.75
2018-09-21T07:15:43.661Z,78.81
2018-09-21T07:17:36.436Z,79.35
2018-09-21T07:18:36.371Z,79.12
2018-09-21T07:20:29.164Z,79.70
2018-09-21T07:21:29.091Z,80.96
2018-09-21T07:23:21.909Z,80.38
2018-09-21T07:24:21.854Z,80.96
2018-09-21T07:26:14.634Z,80.09
2018-09-21T07:27:14.559Z,80.38
2018-09-21T07:29:07.349Z,80.96
2018-09-21T07:30:07.283Z,80.67
2018-09-21T07:32:00.053Z,80.67
2018-09-21T07:32:59.996Z,80.67
2018-09-21T07:34:52.784Z,80.82
2018-09-21T07:35:52.709Z,81.60
2018-09-21T07:37:45.486Z,80.92
2018-09-21T07:38:45.426Z,81.79
2018-09-21T07:40:38.221Z,80.96
2018-09-21T07:41:38.153Z,79.55
2018-09-21T07:43:30.953Z,77.39
2018-09-21T07:44:30.937Z,77.04
2018-09-21T07:46:23.648Z,73.56
2018-09-21T07:47:23.573Z,71.46
2018-09-21T07:49:16.369Z,69.68
2018-09-21T07:50:16.308Z,68.74
2018-09-21T07:52:09.083Z,67.22
2018-09-21T07:53:09.023Z,66.66
2018-09-21T07:55:01.830Z,64.87
2018-09-21T07:56:01.761Z,62.89
2018-09-21T07:57:54.539Z,61.91
2018-09-21T07:58:54.480Z,61.25
2018-09-21T08:00:47.281Z,61.12
2018-09-21T08:01:47.211Z,60.41
2018-09-21T08:03:40.015Z,59.56
2018-09-21T08:04:39.960Z,59.07
2018-09-21T08:06:32.789Z,59.33
2018-09-21T08:07:32.715Z,58.97
2018-09-21T08:09:25.536Z,58.90
2018-09-21T08:10:25.459Z,57.92
2018-09-21T08:12:18.265Z,58.38
2018-09-21T08:13:18.214Z,58.41
2018-09-21T08:15:11.016Z,59.14
2018-09-21T08:16:10.955Z,58.68
2018-09-21T08:18:03.766Z,59.53
2018-09-21T08:19:03.715Z,58.78
2018-09-21T08:20:56.517Z,57.34
2018-09-21T08:21:56.461Z,58.12
2018-09-21T08:23:49.260Z,59.40
2018-09-21T08:24:49.214Z,59.96
2018-09-21T08:26:42.051Z,59.89
2018-09-21T08:27:41.953Z,59.36
2018-09-21T08:29:34.741Z,57.24
2018-09-21T08:30:34.691Z,57.17
2018-09-21T08:32:27.480Z,55.33
2018-09-21T08:33:27.415Z,55.73
2018-09-21T08:35:20.224Z,55.63
2018-09-21T08:36:20.161Z,55.82
2018-09-21T08:38:12.944Z,55.14
2018-09-21T08:39:12.902Z,55.24
2018-09-21T08:41:05.718Z,55.53
2018-09-21T08:42:05.633Z,55.14
2018-09-21T08:43:58.434Z,55.33
2018-09-21T08:44:58.389Z,55.26
2018-09-21T08:46:51.187Z,54.11
2018-09-21T08:47:51.125Z,53.63
2018-09-21T08:49:43.939Z,53.63
2018-09-21T08:50:43.889Z,52.96
2018-09-21T08:52:36.700Z,53.13
2018-09-21T08:53:36.641Z,53.43
2018-09-21T08:55:29.519Z,53.50
2018-09-21T08:56:29.388Z,53.77
2018-09-21T08:58:22.189Z,55.55
2018-09-21T08:59:22.143Z,55.57
2018-09-21T09:01:14.951Z,55.47
2018-09-21T09:02:14.899Z,54.99
2018-09-21T09:04:07.698Z,54.55
2018-09-21T09:05:07.648Z,53.77
2018-09-21T09:07:00.447Z,53.18
2018-09-21T09:08:00.384Z,53.57
2018-09-21T09:09:53.192Z,53.11
2018-09-21T09:10:53.177Z,53.40
2018-09-21T09:12:45.952Z,52.69
2018-09-21T09:13:45.880Z,53.11
2018-09-21T09:15:38.708Z,53.11
2018-09-21T09:16:38.638Z,53.08
2018-09-21T09:18:31.546Z,53.40
2018-09-21T09:19:31.496Z,52.84
2018-09-21T09:21:24.306Z,51.79
2018-09-21T09:22:24.248Z,52.35
2018-09-21T09:24:17.130Z,52.06
2018-09-21T09:25:16.985Z,52.08
2018-09-21T09:27:09.805Z,51.32
2018-09-21T09:28:09.742Z,50.54
2018-09-21T09:30:02.605Z,51.79
2018-09-21T09:31:02.489Z,51.12
2018-09-21T09:32:55.299Z,51.32
2018-09-21T09:33:55.238Z,51.32
2018-09-21T09:35:48.049Z,52.23
2018-09-21T09:36:48.005Z,52.69
2018-09-21T09:38:40.779Z,52.40
2018-09-21T09:39:40.723Z,52.03
2018-09-21T09:41:33.523Z,52.20
2018-09-21T09:42:33.510Z,52.27
2018-09-21T09:44:26.294Z,53.08
2018-09-21T09:45:26.246Z,53.18
2018-09-21T09:47:19.096Z,53.18
2018-09-21T09:48:19.059Z,53.16
2018-09-21T09:50:11.791Z,53.33
2018-09-21T09:51:11.786Z,53.16
2018-09-21T09:53:04.554Z,53.72
2018-09-21T09:54:04.506Z,53.62
2018-09-21T09:55:57.296Z,53.91
2018-09-21T09:56:57.243Z,53.62
2018-09-21T09:58:50.025Z,54.57
2018-09-21T09:59:49.975Z,55.16
2018-09-21T10:01:42.804Z,54.64
2018-09-21T10:02:42.744Z,55.49
2018-09-21T10:04:35.550Z,54.28
2018-09-21T10:05:35.492Z,53.88
2018-09-21T10:07:28.294Z,53.49
2018-09-21T10:08:28.236Z,54.25
2018-09-21T10:10:21.089Z,54.64
2018-09-21T10:11:21.007Z,54.22
2018-09-21T10:13:13.868Z,55.22
2018-09-21T10:14:13.816Z,54.86
2018-09-21T10:16:06.588Z,53.10
2018-09-21T10:17:06.525Z,53.00
2018-09-21T10:18:59.319Z,53.93
2018-09-21T10:19:59.268Z,53.83
2018-09-21T10:21:52.059Z,53.56
2018-09-21T10:22:51.998Z,53.47
2018-09-21T10:24:44.797Z,53.37
2018-09-21T10:25:44.740Z,53.81
2018-09-21T10:27:37.636Z,54.30
2018-09-21T10:28:37.756Z,54.79
2018-09-21T10:30:30.311Z,54.49
2018-09-21T10:31:30.235Z,55.08
2018-09-21T10:33:23.073Z,54.85
2018-09-21T10:34:22.951Z,55.63
2018-09-21T10:36:15.740Z,55.18
2018-09-21T10:37:15.717Z,54.59
2018-09-21T10:39:08.544Z,54.61
2018-09-21T10:40:08.514Z,54.00
2018-09-21T10:42:01.223Z,53.25
2018-09-21T10:43:01.232Z,53.74
2018-09-21T10:44:53.954Z,53.54
2018-09-21T10:45:53.882Z,53.05
2018-09-21T10:47:46.726Z,52.98
2018-09-21T10:48:46.639Z,52.78
2018-09-21T10:50:39.441Z,52.03
2018-09-21T10:51:39.384Z,51.81
2018-09-21T10:53:32.201Z,52.29
2018-09-21T10:54:32.135Z,52.78
2018-09-21T10:56:24.952Z,52.37
2018-09-21T10:57:24.885Z,52.20
2018-09-21T10:59:17.685Z,51.83
2018-09-21T11:00:17.627Z,51.56
2018-09-21T11:02:10.482Z,50.32
2018-09-21T11:03:10.393Z,50.34
2018-09-21T11:05:03.206Z,50.68
2018-09-21T11:06:03.143Z,51.07
2018-09-21T11:07:55.952Z,52.12
2018-09-21T11:08:55.887Z,52.03
2018-09-21T11:10:48.697Z,52.25
2018-09-21T11:11:48.637Z,51.76
2018-09-21T11:13:41.456Z,51.95
2018-09-21T11:14:41.389Z,51.93
2018-09-21T11:16:34.215Z,52.91
2018-09-21T11:17:34.151Z,51.76
2018-09-21T11:19:26.921Z,51.86
2018-09-21T11:20:26.867Z,52.12
2018-09-21T11:22:19.657Z,52.54
2018-09-21T11:23:19.592Z,52.32
2018-09-21T11:25:12.374Z,52.12
2018-09-21T11:26:12.310Z,52.32
2018-09-21T11:28:05.116Z,52.91
2018-09-21T11:29:05.043Z,52.81
2018-09-21T11:30:56.868Z,52.98
2018-09-21T11:31:56.804Z,53.37
2018-09-21T11:33:48.587Z,53.93
2018-09-21T11:34:48.515Z,54.49
2018-09-21T11:36:40.403Z,54.98
2018-09-21T11:37:40.319Z,54.39
2018-09-21T11:39:32.082Z,54.98
2018-09-21T11:40:32.032Z,54.98
2018-09-21T11:42:23.904Z,55.37
2018-09-21T11:43:23.828Z,54.39
2018-09-21T11:45:15.595Z,53.93
2018-09-21T11:46:15.540Z,54.13
2018-09-21T11:48:07.335Z,53.76
2018-09-21T11:49:07.263Z,53.54
2018-09-21T11:50:59.033Z,54.69
2018-09-21T11:51:58.977Z,54.98
2018-09-21T11:53:50.775Z,54.61
2018-09-21T11:54:50.705Z,54.52
2018-09-21T11:56:42.592Z,53.74
2018-09-21T11:57:42.535Z,53.96
2018-09-21T11:59:34.324Z,53.47
2018-09-21T12:00:34.257Z,53.27
2018-09-21T12:02:26.051Z,53.27
2018-09-21T12:03:25.985Z,53.76
2018-09-21T12:05:17.775Z,53.47
2018-09-21T12:06:17.753Z,54.05
2018-09-21T12:08:09.506Z,54.22
2018-09-21T12:09:09.439Z,54.22
2018-09-21T12:11:01.219Z,53.66
2018-09-21T12:12:01.169Z,53.00
2018-09-21T12:13:52.957Z,52.98
2018-09-21T12:14:52.892Z,53.17
2018-09-21T12:16:44.679Z,53.34
2018-09-21T12:17:44.613Z,53.54
2018-09-21T12:19:36.515Z,54.49
2018-09-21T12:20:36.444Z,54.20
2018-09-21T12:22:28.243Z,54.52
2018-09-21T12:23:28.180Z,54.10
2018-09-21T12:25:19.989Z,54.10
2018-09-21T12:26:19.923Z,54.00
2018-09-21T12:28:11.705Z,54.22
2018-09-21T12:29:11.628Z,53.91
2018-09-21T12:31:03.425Z,54.61
2018-09-21T12:32:03.360Z,54.03
2018-09-21T12:33:55.252Z,54.91
2018-09-21T12:34:55.188Z,54.71
2018-09-21T12:36:46.949Z,53.81
2018-09-21T12:37:46.893Z,54.22
2018-09-21T12:39:38.723Z,55.08
2018-09-21T12:40:38.666Z,54.20
2018-09-21T12:42:30.609Z,55.08
2018-09-21T12:43:30.462Z,55.18
2018-09-21T12:45:22.223Z,54.98
2018-09-21T12:46:22.167Z,55.47
2018-09-21T12:48:14.093Z,54.98
2018-09-21T12:49:14.027Z,55.05
2018-09-21T12:51:05.870Z,55.44
2018-09-21T12:52:05.810Z,55.34
2018-09-21T12:53:57.609Z,54.95
2018-09-21T12:54:57.530Z,53.97
2018-09-21T12:56:49.471Z,55.05
2018-09-21T12:57:49.435Z,54.95
2018-09-21T12:59:41.308Z,55.15
2018-09-21T13:00:41.230Z,55.15
2018-09-21T13:02:33.035Z,55.44
2018-09-21T13:03:32.959Z,55.34
2018-09-21T13:05:24.751Z,55.80
2018-09-21T13:06:24.740Z,56.00
2018-09-21T13:08:16.514Z,55.61
2018-09-21T13:09:16.520Z,55.32
2018-09-21T13:11:08.191Z,56.10
2018-09-21T13:12:08.144Z,55.90
2018-09-21T13:13:59.929Z,56.48
2018-09-21T13:14:59.858Z,56.10
2018-09-21T13:16:51.636Z,56.46
2018-09-21T13:17:51.581Z,56.26
2018-09-21T13:19:43.352Z,56.36
2018-09-21T13:20:43.282Z,56.46
2018-09-21T13:22:35.102Z,55.94
2018-09-21T13:23:35.039Z,56.85
2018-09-21T13:25:26.921Z,56.85
2018-09-21T13:26:26.826Z,56.82
2018-09-21T13:28:18.671Z,56.92
2018-09-21T13:29:18.634Z,56.23
2018-09-21T13:31:11.368Z,56.33
2018-09-21T13:32:11.354Z,56.50
2018-09-21T13:34:03.090Z,56.79
2018-09-21T13:35:03.026Z,57.09
2018-09-21T13:36:54.791Z,57.15
2018-09-21T13:37:54.729Z,57.06
2018-09-21T13:39:46.507Z,57.64
2018-09-21T13:40:46.442Z,56.57
2018-09-21T13:42:38.198Z,56.09
2018-09-21T13:43:38.142Z,55.79
2018-09-21T13:45:29.914Z,55.86
2018-09-21T13:46:29.845Z,56.45
2018-09-21T13:48:21.672Z,57.12
2018-09-21T13:49:21.602Z,56.64
2018-09-21T13:51:13.426Z,57.32
2018-09-21T13:52:13.362Z,56.93
2018-09-21T13:54:05.132Z,57.78
2018-09-21T13:55:05.060Z,57.61
2018-09-21T13:56:56.883Z,58.20
2018-09-21T13:57:56.825Z,57.87
2018-09-21T13:59:48.614Z,58.17
2018-09-21T14:00:48.549Z,58.26
2018-09-21T14:02:40.326Z,58.49
2018-09-21T14:03:40.269Z,58.59
2018-09-21T14:05:32.050Z,58.39
2018-09-21T14:06:31.970Z,58.78
2018-09-21T14:08:23.743Z,58.87
2018-09-21T14:09:23.689Z,58.29
2018-09-21T14:11:15.524Z,58.59
2018-09-21T14:12:15.455Z,58.87
2018-09-21T14:14:07.234Z,58.69
2018-09-21T14:15:07.164Z,59.17
2018-09-21T14:16:58.991Z,59.17
2018-09-21T14:17:58.929Z,59.56
2018-09-21T14:19:50.701Z,58.56
2018-09-21T14:20:50.637Z,59.66
2018-09-21T14:22:42.420Z,59.63
2018-09-21T14:23:42.361Z,59.82
2018-09-21T14:25:34.147Z,60.21
2018-09-21T14:26:34.080Z,60.02
2018-09-21T14:28:25.835Z,60.79
2018-09-21T14:29:25.774Z,60.89
2018-09-21T14:31:17.551Z,60.21
2018-09-21T14:32:17.478Z,60.70
2018-09-21T14:34:09.252Z,60.70
2018-09-21T14:35:09.186Z,60.70
2018-09-21T14:37:00.943Z,61.15
2018-09-21T14:38:00.885Z,61.35
2018-09-21T14:39:52.833Z,70.29
2018-09-21T14:40:52.769Z,73.32
2018-09-21T14:42:44.550Z,80.63
2018-09-21T14:43:44.486Z,85.77
2018-09-21T14:45:36.272Z,95.30
2018-09-21T14:46:36.190Z,96.70
2018-09-21T14:48:28.006Z,99.69
2018-09-21T14:49:27.949Z,99.99
2018-09-21T14:51:20.728Z,99.99
2018-09-21T14:52:20.660Z,99.99
2018-09-21T14:54:12.487Z,99.99
2018-09-21T14:55:12.419Z,99.99
2018-09-21T14:57:04.179Z,99.99
2018-09-21T14:58:04.120Z,99.99
2018-09-21T14:59:56.126Z,99.99
2018-09-21T15:00:56.016Z,99.99
2018-09-21T15:02:47.892Z,99.99
2018-09-21T15:03:47.832Z,99.99
2018-09-21T15:05:39.599Z,99.99
2018-09-21T15:06:39.532Z,99.99
2018-09-21T15:08:31.352Z,99.99
2018-09-21T15:09:31.275Z,99.99
2018-09-21T15:11:23.063Z,99.99
2018-09-21T15:12:22.988Z,99.99
2018-09-21T15:14:14.858Z,99.99
2018-09-21T15:15:14.798Z,99.99
2018-09-21T15:17:06.586Z,99.99
2018-09-21T15:18:06.512Z,99.99
2018-09-21T15:19:58.276Z,99.99
2018-09-21T15:20:58.205Z,99.99
2018-09-21T15:22:50.071Z,99.99
2018-09-21T15:23:50.012Z,99.99
2018-09-21T15:25:41.765Z,99.99
2018-09-21T15:26:41.695Z,99.99
2018-09-21T15:28:33.534Z,99.99
2018-09-21T15:29:33.470Z,99.99
2018-09-21T15:31:25.251Z,99.99
2018-09-21T15:32:25.175Z,99.99
2018-09-21T15:34:17.016Z,99.99
2018-09-21T15:35:16.937Z,99.99
2018-09-21T15:37:08.712Z,99.99
2018-09-21T15:38:08.641Z,99.99
2018-09-21T15:40:00.463Z,99.99
2018-09-21T15:41:00.383Z,99.99
2018-09-21T15:42:52.155Z,99.99
2018-09-21T15:43:52.093Z,99.99
2018-09-21T15:45:43.910Z,99.99
2018-09-21T15:46:43.837Z,99.99
2018-09-21T15:48:35.607Z,99.99
2018-09-21T15:49:35.546Z,99.99
2018-09-21T15:51:27.318Z,99.99
2018-09-21T15:52:27.247Z,99.99
2018-09-21T15:54:19.016Z,99.99
2018-09-21T15:55:18.955Z,99.99
2018-09-21T15:57:10.815Z,99.99
2018-09-21T15:58:10.733Z,99.99
2018-09-21T16:00:02.534Z,99.99
2018-09-21T16:01:02.444Z,99.99
2018-09-21T16:02:54.234Z,99.99
2018-09-21T16:03:54.172Z,99.99
2018-09-21T16:05:45.969Z,99.99
2018-09-21T16:06:45.895Z,99.99
2018-09-21T16:08:37.717Z,99.99
2018-09-21T16:09:37.654Z,98.14
2018-09-21T16:11:29.492Z,99.99
2018-09-21T16:12:29.409Z,99.99
2018-09-21T16:14:21.290Z,99.99
2018-09-21T16:15:21.159Z,99.99
2018-09-21T16:17:12.982Z,99.99
2018-09-21T16:18:12.923Z,99.99
2018-09-21T16:20:05.676Z,99.99
2018-09-21T16:21:05.606Z,99.99
2018-09-21T16:22:58.372Z,99.99
2018-09-21T16:23:58.305Z,99.99
2018-09-21T16:25:51.076Z,99.99
2018-09-21T16:26:51.005Z,99.99
2018-09-21T16:28:43.765Z,99.99
2018-09-21T16:29:43.702Z,99.99
2018-09-21T16:31:36.478Z,99.99
2018-09-21T16:32:36.405Z,99.99
2018-09-21T16:34:29.226Z,99.99
2018-09-21T16:35:29.099Z,99.99
2018-09-21T16:37:21.903Z,99.99
2018-09-21T16:38:21.831Z,99.99
2018-09-21T16:40:14.673Z,99.99
2018-09-21T16:41:14.585Z,99.99
2018-09-21T16:43:07.349Z,99.99
2018-09-21T16:44:07.282Z,99.99
2018-09-21T16:46:00.090Z,99.99
2018-09-21T16:47:00.011Z,99.99
2018-09-21T16:48:52.768Z,99.99
2018-09-21T16:49:52.704Z,99.99
2018-09-21T16:51:45.499Z,99.99
2018-09-21T16:52:45.407Z,99.99
2018-09-21T16:54:38.165Z,99.99
2018-09-21T16:55:38.099Z,99.99
2018-09-21T16:57:30.927Z,99.99
2018-09-21T16:58:30.829Z,99.99
2018-09-21T17:00:23.613Z,99.99
2018-09-21T17:01:23.546Z,99.99
2018-09-21T17:03:16.327Z,99.99
2018-09-21T17:04:16.331Z,99.99
2018-09-21T17:06:09.021Z,99.99
2018-09-21T17:07:08.949Z,99.99
2018-09-21T17:09:01.705Z,99.99
2018-09-21T17:10:01.649Z,99.99
2018-09-21T17:11:54.417Z,99.99
2018-09-21T17:12:54.347Z,99.99
2018-09-21T17:14:47.109Z,99.99
2018-09-21T17:15:47.043Z,99.99
2018-09-21T17:17:39.818Z,99.99
2018-09-21T17:18:39.744Z,99.99
2018-09-21T17:20:32.591Z,99.99
2018-09-21T17:21:32.438Z,99.99
2018-09-21T17:23:25.212Z,99.99
2018-09-21T17:24:25.141Z,99.99
2018-09-21T17:26:17.911Z,99.99
2018-09-21T17:27:17.837Z,99.99
2018-09-21T17:29:10.601Z,99.99
2018-09-21T17:30:10.541Z,99.99
2018-09-21T17:32:03.367Z,99.99
2018-09-21T17:33:03.238Z,99.99
2018-09-21T17:34:56.002Z,99.99
2018-09-21T17:35:55.971Z,99.99
2018-09-21T17:37:48.725Z,99.99
2018-09-21T17:38:48.643Z,99.99
2018-09-21T17:40:41.411Z,99.99
2018-09-21T17:41:41.341Z,99.99
2018-09-21T17:43:34.169Z,99.99
2018-09-21T17:44:34.092Z,99.99
2018-09-21T17:46:26.864Z,99.99
2018-09-21T17:47:26.795Z,99.99
2018-09-21T17:49:19.581Z,99.99
2018-09-21T17:50:19.520Z,99.99
2018-09-21T17:52:12.327Z,99.99
2018-09-21T17:53:12.246Z,99.99
2018-09-21T17:55:05.009Z,99.99
2018-09-21T17:56:04.943Z,99.99
2018-09-21T17:57:57.766Z,99.99
2018-09-21T17:58:57.690Z,99.99
2018-09-21T18:00:50.456Z,99.99
2018-09-21T18:01:50.384Z,99.99
2018-09-21T18:03:43.164Z,99.99
2018-09-21T18:04:43.092Z,99.99
2018-09-21T18:06:35.862Z,99.99
2018-09-21T18:07:35.782Z,99.99
2018-09-21T18:09:28.539Z,99.99
2018-09-21T18:10:28.474Z,99.99
2018-09-21T18:12:21.278Z,99.99
2018-09-21T18:13:21.186Z,99.99
2018-09-21T18:15:13.954Z,99.99
2018-09-21T18:16:13.968Z,99.99
2018-09-21T18:18:06.668Z,99.99
2018-09-21T18:19:06.584Z,99.99
2018-09-21T18:20:59.373Z,99.99
2018-09-21T18:21:59.310Z,99.99
2018-09-21T18:23:52.100Z,99.99
2018-09-21T18:24:52.024Z,99.99
2018-09-21T18:26:44.806Z,99.99
2018-09-21T18:27:44.729Z,99.99
2018-09-21T18:29:37.488Z,99.99